createdAt,value
2018-11-23T00:00:21.875Z,101299.98
2018-11-23T00:02:50.922Z,101288.31
2018-11-23T00:05:19.801Z,101296.77
2018-11-23T00:07:48.839Z,101294.45
2018-11-23T00:10:19.744Z,101305.00
2018-11-23T00:12:48.768Z,101300.45
2018-11-23T00:15:18.450Z,101300.25
2018-11-23T00:17:46.990Z,101304.03
2018-11-23T00:20:16.881Z,101313.49
2018-11-23T00:22:45.370Z,101320.02
2018-11-23T00:25:15.127Z,101318.25
2018-11-23T00:27:43.658Z,101322.63
2018-11-23T00:30:16.407Z,101324.42
2018-11-23T00:32:45.634Z,101324.06
2018-11-23T00:35:16.111Z,101325.48
2018-11-23T00:37:45.166Z,101327.56
2018-11-23T00:40:18.421Z,101332.30
2018-11-23T00:42:46.940Z,101331.73
2018-11-23T00:45:15.559Z,101337.26
2018-11-23T00:47:45.064Z,101334.95
2018-11-23T00:50:14.975Z,101333.33
2018-11-23T00:52:44.100Z,101333.45
2018-11-23T00:55:14.313Z,101335.47
2018-11-23T00:57:43.655Z,101331.41
2018-11-23T01:00:16.511Z,101336.39
2018-11-23T01:02:45.298Z,101331.49
2018-11-23T01:05:15.369Z,101335.54
2018-11-23T01:07:44.390Z,101332.08
2018-11-23T01:10:14.384Z,101332.98
2018-11-23T01:12:43.821Z,101334.48
2018-11-23T01:15:12.521Z,101330.96
2018-11-23T01:17:41.083Z,101335.61
2018-11-23T01:20:12.743Z,101334.75
2018-11-23T01:22:41.662Z,101331.49
2018-11-23T01:25:11.776Z,101334.96
2018-11-23T01:27:42.025Z,101326.66
2018-11-23T01:30:14.109Z,101332.67
2018-11-23T01:32:42.634Z,101336.47
2018-11-23T01:35:11.257Z,101334.05
2018-11-23T01:37:39.799Z,101328.03
2018-11-23T01:40:10.260Z,101328.56
2018-11-23T01:42:38.804Z,101333.91
2018-11-23T01:45:09.293Z,101327.35
2018-11-23T01:47:38.772Z,101315.39
2018-11-23T01:50:13.438Z,101319.97
2018-11-23T01:52:42.055Z,101321.33
2018-11-23T01:55:11.852Z,101322.98
2018-11-23T01:57:41.191Z,101323.20
2018-11-23T02:00:13.195Z,101332.84
2018-11-23T02:02:41.714Z,101334.73
2018-11-23T02:05:10.846Z,101333.19
2018-11-23T02:07:39.863Z,101326.32
2018-11-23T02:10:09.575Z,101319.23
2018-11-23T02:12:38.106Z,101316.66
2018-11-23T02:15:10.618Z,101325.09
2018-11-23T02:17:39.193Z,101322.14
2018-11-23T02:20:11.188Z,101316.75
2018-11-23T02:22:39.738Z,101313.30
2018-11-23T02:25:08.731Z,101312.32
2018-11-23T02:27:37.406Z,101307.36
2018-11-23T02:30:12.019Z,101310.65
2018-11-23T02:32:41.047Z,101307.00
2018-11-23T02:35:09.602Z,101308.48
2018-11-23T02:37:38.196Z,101306.71
2018-11-23T02:40:07.616Z,101307.33
2018-11-23T02:42:36.419Z,101307.70
2018-11-23T02:45:05.732Z,101307.45
2018-11-23T02:47:34.223Z,101303.06
2018-11-23T02:50:02.679Z,101299.76
2018-11-23T02:52:31.208Z,101296.78
2018-11-23T02:54:59.719Z,101301.50
2018-11-23T02:57:28.286Z,101292.70
2018-11-23T02:59:56.750Z,101295.69
2018-11-23T03:02:25.290Z,101296.87
2018-11-23T03:04:53.832Z,101298.50
2018-11-23T03:07:22.572Z,101295.63
2018-11-23T03:09:51.140Z,101297.77
2018-11-23T03:12:19.691Z,101298.36
2018-11-23T03:14:48.243Z,101300.80
2018-11-23T03:17:17.387Z,101295.56
2018-11-23T03:19:45.887Z,101293.80
2018-11-23T03:22:14.414Z,101287.03
2018-11-23T03:24:42.911Z,101289.64
2018-11-23T03:27:11.400Z,101295.37
2018-11-23T03:29:39.929Z,101288.27
2018-11-23T03:32:08.395Z,101281.48
2018-11-23T03:34:36.928Z,101287.81
2018-11-23T03:37:05.505Z,101282.86
2018-11-23T03:39:34.292Z,101279.58
2018-11-23T03:42:03.214Z,101288.39
2018-11-23T03:44:31.710Z,101283.91
2018-11-23T03:47:00.266Z,101283.19
2018-11-23T03:49:28.786Z,101279.00
2018-11-23T03:51:57.328Z,101285.98
2018-11-23T03:54:25.832Z,101277.70
2018-11-23T03:56:54.354Z,101279.12
2018-11-23T03:59:22.900Z,101278.08
2018-11-23T04:01:51.415Z,101273.73
2018-11-23T04:04:19.918Z,101276.47
2018-11-23T04:06:48.607Z,101274.61
2018-11-23T04:09:17.770Z,101275.67
2018-11-23T04:11:46.286Z,101277.91
2018-11-23T04:14:14.845Z,101274.70
2018-11-23T04:16:43.343Z,101277.94
2018-11-23T04:19:11.829Z,101268.69
2018-11-23T04:21:40.390Z,101267.59
2018-11-23T04:24:08.922Z,101272.13
2018-11-23T04:26:37.420Z,101270.83
2018-11-23T04:29:06.374Z,101271.55
2018-11-23T04:31:34.957Z,101269.78
2018-11-23T04:34:03.446Z,101271.45
2018-11-23T04:36:32.003Z,101271.58
2018-11-23T04:39:00.507Z,101271.10
2018-11-23T04:41:29.015Z,101269.69
2018-11-23T04:43:57.546Z,101272.27
2018-11-23T04:46:26.195Z,101274.64
2018-11-23T04:48:54.697Z,101279.80
2018-11-23T04:51:23.180Z,101273.11
2018-11-23T04:53:51.670Z,101281.72
2018-11-23T04:56:20.211Z,101281.24
2018-11-23T04:58:48.715Z,101271.53
2018-11-23T05:01:17.321Z,101276.03
2018-11-23T05:03:45.879Z,101281.45
2018-11-23T05:06:14.455Z,101276.11
2018-11-23T05:08:42.951Z,101271.05
2018-11-23T05:11:11.523Z,101271.05
2018-11-23T05:13:40.106Z,101273.53
2018-11-23T05:16:08.622Z,101271.64
2018-11-23T05:18:37.133Z,101266.92
2018-11-23T05:21:05.827Z,101268.83
2018-11-23T05:23:34.343Z,101270.69
2018-11-23T05:26:02.855Z,101266.06
2018-11-23T05:28:31.405Z,101264.55
2018-11-23T05:30:59.959Z,101269.90
2018-11-23T05:33:28.502Z,101260.39
2018-11-23T05:35:57.061Z,101256.25
2018-11-23T05:38:25.550Z,101253.84
2018-11-23T05:40:55.078Z,101255.74
2018-11-23T05:43:24.219Z,101259.77
2018-11-23T05:45:53.878Z,101258.88
2018-11-23T05:48:26.971Z,101263.19
2018-11-23T05:50:52.305Z,101261.14
2018-11-23T05:53:20.870Z,101260.06
2018-11-23T05:55:49.355Z,101260.18
2018-11-23T05:58:17.854Z,101254.09
2018-11-23T06:00:46.526Z,101245.01
2018-11-23T06:03:15.025Z,101246.19
2018-11-23T06:05:43.548Z,101246.05
2018-11-23T06:08:12.055Z,101240.73
2018-11-23T06:10:40.757Z,101241.80
2018-11-23T06:13:10.138Z,101243.68
2018-11-23T06:15:44.409Z,101244.31
2018-11-23T06:18:07.323Z,101235.33
2018-11-23T06:20:35.872Z,101238.59
2018-11-23T06:23:04.586Z,101240.04
2018-11-23T06:25:35.930Z,101238.41
2018-11-23T06:28:04.878Z,101235.81
2018-11-23T06:30:33.399Z,101238.34
2018-11-23T06:33:13.537Z,101239.98
2018-11-23T06:35:42.222Z,101237.58
2018-11-23T06:38:10.682Z,101238.32
2018-11-23T06:40:39.231Z,101241.07
2018-11-23T06:43:07.727Z,101237.84
2018-11-23T06:45:38.250Z,101241.48
2018-11-23T06:48:07.591Z,101240.68
2018-11-23T06:50:36.736Z,101236.97
2018-11-23T06:53:05.643Z,101240.98
2018-11-23T06:55:34.163Z,101236.66
2018-11-23T06:58:02.774Z,101237.44
2018-11-23T07:00:31.358Z,101248.38
2018-11-23T07:02:59.862Z,101237.55
2018-11-23T07:05:28.405Z,101241.64
2018-11-23T07:07:56.935Z,101235.83
2018-11-23T07:10:25.541Z,101230.82
2018-11-23T07:12:54.054Z,101240.19
2018-11-23T07:15:22.583Z,101236.02
2018-11-23T07:17:51.138Z,101239.41
2018-11-23T07:20:19.643Z,101234.44
2018-11-23T07:22:48.724Z,101238.45
2018-11-23T07:25:17.238Z,101241.44
2018-11-23T07:27:45.794Z,101241.55
2018-11-23T07:30:16.800Z,101250.30
2018-11-23T07:32:45.558Z,101243.80
2018-11-23T07:35:15.156Z,101244.77
2018-11-23T07:37:43.668Z,101251.41
2018-11-23T07:40:24.951Z,101251.54
2018-11-23T07:42:54.147Z,101246.03
2018-11-23T07:45:22.659Z,101254.45
2018-11-23T07:47:51.190Z,101261.91
2018-11-23T07:50:19.694Z,101260.14
2018-11-23T07:52:48.411Z,101260.16
2018-11-23T07:55:16.952Z,101253.77
2018-11-23T07:57:46.026Z,101259.04
2018-11-23T08:00:18.035Z,101266.19
2018-11-23T08:02:47.355Z,101263.67
2018-11-23T08:05:16.954Z,101268.73
2018-11-23T08:07:46.273Z,101270.09
2018-11-23T08:10:14.862Z,101267.27
2018-11-23T08:12:44.675Z,101264.06
2018-11-23T08:15:18.769Z,101270.79
2018-11-23T08:17:47.334Z,101264.43
2018-11-23T08:20:17.356Z,101265.73
2018-11-23T08:22:46.076Z,101272.33
2018-11-23T08:25:15.843Z,101265.82
2018-11-23T08:27:45.251Z,101265.94
2018-11-23T08:30:16.963Z,101260.50
2018-11-23T08:32:45.646Z,101254.63
2018-11-23T08:35:14.518Z,101247.94
2018-11-23T08:37:43.107Z,101243.58
2018-11-23T08:40:13.891Z,101244.64
2018-11-23T08:42:43.084Z,101250.42
2018-11-23T08:45:14.167Z,101246.78
2018-11-23T08:47:42.697Z,101245.87
2018-11-23T08:50:15.928Z,101240.05
2018-11-23T08:52:45.443Z,101235.20
2018-11-23T08:55:14.843Z,101235.78
2018-11-23T08:57:43.523Z,101231.07
2018-11-23T09:00:16.428Z,101230.47
2018-11-23T09:02:46.070Z,101230.59
2018-11-23T09:05:15.127Z,101229.30
2018-11-23T09:07:44.578Z,101229.31
2018-11-23T09:10:15.504Z,101232.85
2018-11-23T09:12:45.250Z,101224.22
2018-11-23T09:15:14.643Z,101222.20
2018-11-23T09:17:44.281Z,101227.53
2018-11-23T09:20:13.471Z,101229.41
2018-11-23T09:22:42.069Z,101233.80
2018-11-23T09:25:19.937Z,101241.03
2018-11-23T09:27:48.438Z,101251.08
2018-11-23T09:30:20.174Z,101244.57
2018-11-23T09:32:49.518Z,101244.70
2018-11-23T09:35:18.024Z,101243.73
2018-11-23T09:37:47.012Z,101242.06
2018-11-23T09:40:20.005Z,101237.91
2018-11-23T09:42:48.820Z,101237.56
2018-11-23T09:45:20.071Z,101228.53
2018-11-23T09:47:49.646Z,101226.85
2018-11-23T09:50:20.328Z,101225.62
2018-11-23T09:52:50.189Z,101218.38
2018-11-23T09:55:19.398Z,101220.39
2018-11-23T09:57:47.934Z,101201.85
2018-11-23T10:00:20.942Z,101209.64
2018-11-23T10:02:50.335Z,101215.94
2018-11-23T10:05:19.780Z,101219.27
2018-11-23T10:07:50.703Z,101223.29
2018-11-23T10:10:20.098Z,101225.66
2018-11-23T10:12:48.809Z,101225.27
2018-11-23T10:15:18.234Z,101218.77
2018-11-23T10:17:46.720Z,101225.56
2018-11-23T10:20:24.644Z,101223.42
2018-11-23T10:22:53.293Z,101222.11
2018-11-23T10:25:23.297Z,101218.77
2018-11-23T10:27:51.849Z,101214.11
2018-11-23T10:30:22.722Z,101213.67
2018-11-23T10:32:52.426Z,101211.62
2018-11-23T10:35:20.940Z,101206.34
2018-11-23T10:37:51.107Z,101202.55
2018-11-23T10:40:22.656Z,101200.46
2018-11-23T10:42:51.214Z,101194.44
2018-11-23T10:45:22.065Z,101197.71
2018-11-23T10:47:51.391Z,101203.07
2018-11-23T10:50:22.283Z,101206.68
2018-11-23T10:52:51.608Z,101196.90
2018-11-23T10:55:21.842Z,101200.88
2018-11-23T10:57:50.524Z,101193.41
2018-11-23T11:00:25.016Z,101189.53
2018-11-23T11:02:59.844Z,101187.16
2018-11-23T11:05:33.743Z,101183.12
2018-11-23T11:08:03.086Z,101185.82
2018-11-23T11:10:31.652Z,101172.33
2018-11-23T11:13:00.272Z,101174.79
2018-11-23T11:15:28.778Z,101174.03
2018-11-23T11:17:57.315Z,101172.79
2018-11-23T11:20:25.867Z,101175.67
2018-11-23T11:22:54.411Z,101175.06
2018-11-23T11:25:22.996Z,101173.35
2018-11-23T11:27:51.848Z,101175.69
2018-11-23T11:30:20.829Z,101171.88
2018-11-23T11:32:49.793Z,101167.40
2018-11-23T11:35:18.339Z,101161.88
2018-11-23T11:37:46.993Z,101159.80
2018-11-23T11:40:16.990Z,101152.09
2018-11-23T11:42:45.741Z,101152.67
2018-11-23T11:45:15.580Z,101148.96
2018-11-23T11:47:44.705Z,101149.25
2018-11-23T11:50:14.346Z,101145.73
2018-11-23T11:52:44.089Z,101139.77
2018-11-23T11:55:14.752Z,101135.03
2018-11-23T11:57:43.918Z,101135.50
2018-11-23T12:00:15.564Z,101127.93
2018-11-23T12:02:44.077Z,101125.88
2018-11-23T12:05:13.461Z,101132.13
2018-11-23T12:07:42.605Z,101123.50
2018-11-23T12:10:14.655Z,101124.72
2018-11-23T12:12:43.182Z,101113.88
2018-11-23T12:15:12.406Z,101109.42
2018-11-23T12:17:41.274Z,101104.48
2018-11-23T12:20:12.577Z,101099.07
2018-11-23T12:22:41.492Z,101107.95
2018-11-23T12:25:10.160Z,101101.47
2018-11-23T12:27:38.695Z,101104.55
2018-11-23T12:30:11.183Z,101101.13
2018-11-23T12:32:40.135Z,101095.16
2018-11-23T12:35:10.015Z,101101.24
2018-11-23T12:37:38.728Z,101089.83
2018-11-23T12:40:10.107Z,101089.98
2018-11-23T12:42:38.673Z,101091.82
2018-11-23T12:45:10.161Z,101087.13
2018-11-23T12:47:39.593Z,101081.88
2018-11-23T12:50:12.235Z,101084.03
2018-11-23T12:52:40.980Z,101085.02
2018-11-23T12:55:10.270Z,101085.45
2018-11-23T12:57:39.195Z,101083.09
2018-11-23T13:00:16.626Z,101076.66
2018-11-23T13:02:46.035Z,101075.88
2018-11-23T13:05:14.566Z,101075.62
2018-11-23T13:07:43.204Z,101072.14
2018-11-23T13:10:11.782Z,101071.09
2018-11-23T13:12:40.509Z,101058.05
2018-11-23T13:15:09.038Z,101057.91
2018-11-23T13:17:37.686Z,101061.46
2018-11-23T13:20:08.841Z,101060.75
2018-11-23T13:22:37.502Z,101059.06
2018-11-23T13:25:08.829Z,101047.42
2018-11-23T13:27:37.929Z,101053.95
2018-11-23T13:30:13.547Z,101047.77
2018-11-23T13:32:42.906Z,101041.38
2018-11-23T13:35:13.160Z,101050.66
2018-11-23T13:37:41.966Z,101043.73
2018-11-23T13:40:13.528Z,101036.23
2018-11-23T13:42:42.258Z,101034.44
2018-11-23T13:45:12.854Z,101041.00
2018-11-23T13:47:41.722Z,101036.76
2018-11-23T13:50:12.348Z,101040.48
2018-11-23T13:52:41.424Z,101032.09
2018-11-23T13:55:09.995Z,101027.53
2018-11-23T13:57:38.613Z,101030.93
2018-11-23T14:05:11.658Z,101037.70
2018-11-23T14:07:40.461Z,101032.23
2018-11-23T14:10:11.155Z,101024.20
2018-11-23T14:12:39.678Z,101017.67
2018-11-23T14:15:11.155Z,101018.05
2018-11-23T14:17:40.583Z,101019.92
2018-11-23T14:20:10.930Z,101025.38
2018-11-23T14:22:39.508Z,101029.77
2018-11-23T14:25:10.302Z,101037.48
2018-11-23T14:27:38.818Z,101028.23
2018-11-23T14:30:13.395Z,101025.91
2018-11-23T14:32:42.099Z,101014.44
2018-11-23T14:35:12.690Z,101015.84
2018-11-23T14:37:41.835Z,101021.56
2018-11-23T14:40:11.522Z,101019.25
2018-11-23T14:42:41.180Z,101011.45
2018-11-23T14:45:12.936Z,101015.94
2018-11-23T14:47:42.079Z,101007.61
2018-11-23T14:50:13.688Z,101007.44
2018-11-23T14:52:43.233Z,101005.70
2018-11-23T14:55:11.778Z,101006.36
2018-11-23T14:57:41.331Z,101005.97
2018-11-23T15:00:14.155Z,101003.61
2018-11-23T15:02:43.322Z,101001.23
2018-11-23T15:05:11.827Z,100994.88
2018-11-23T15:07:40.509Z,100999.57
2018-11-23T15:10:12.251Z,101002.34
2018-11-23T15:12:40.831Z,100998.66
2018-11-23T15:15:13.626Z,101001.65
2018-11-23T15:17:42.772Z,101009.22
2018-11-23T15:20:16.219Z,101006.45
2018-11-23T15:25:19.117Z,101012.48
2018-11-23T15:27:47.611Z,101016.77
2018-11-23T15:30:20.023Z,101016.62
2018-11-23T15:32:48.713Z,101016.11
2018-11-23T15:35:17.722Z,101016.59
2018-11-23T15:37:46.328Z,101007.65
2018-11-23T15:40:17.560Z,101004.63
2018-11-23T15:42:46.959Z,101002.50
2018-11-23T15:45:17.064Z,101001.81
2018-11-23T15:47:45.650Z,101002.38
2018-11-23T15:50:18.483Z,100999.75
2018-11-23T15:52:47.498Z,100997.13
2018-11-23T15:55:18.870Z,100990.73
2018-11-23T15:57:48.269Z,100990.28
2018-11-23T16:00:22.352Z,100985.34
2018-11-23T16:02:51.221Z,100977.02
2018-11-23T16:05:19.876Z,100982.25
2018-11-23T16:07:48.938Z,100979.74
2018-11-23T16:10:21.956Z,100978.25
2018-11-23T16:12:58.403Z,100975.03
2018-11-23T16:15:27.525Z,100977.95
2018-11-23T16:17:56.711Z,100976.16
2018-11-23T16:20:28.793Z,100969.91
2018-11-23T16:22:59.830Z,100968.46
2018-11-23T16:25:28.354Z,100965.01
2018-11-23T16:27:58.370Z,100974.79
2018-11-23T16:30:29.178Z,100975.08
2018-11-23T16:32:58.930Z,100977.22
2018-11-23T16:35:28.997Z,100977.30
2018-11-23T16:37:58.730Z,100970.72
2018-11-23T16:40:29.073Z,100963.48
2018-11-23T16:42:59.095Z,100959.09
2018-11-23T16:45:29.075Z,100959.46
2018-11-23T16:47:58.735Z,100958.16
2018-11-23T16:50:27.707Z,100965.22
2018-11-23T16:52:56.779Z,100964.01
2018-11-23T16:55:25.627Z,100969.78
2018-11-23T16:57:57.540Z,100969.83
2018-11-23T17:00:41.986Z,100966.08
2018-11-23T17:03:12.647Z,100966.38
2018-11-23T17:05:42.709Z,100962.45
2018-11-23T17:08:11.641Z,100967.28
2018-11-23T17:10:40.380Z,100964.52
2018-11-23T17:13:08.939Z,100962.84
2018-11-23T17:15:37.426Z,100961.98
2018-11-23T17:18:06.882Z,100957.28
2018-11-23T17:20:35.827Z,100960.45
2018-11-23T17:23:07.085Z,100967.21
2018-11-23T17:25:35.783Z,100964.73
2018-11-23T17:28:05.785Z,100964.23
2018-11-23T17:30:35.174Z,100964.45
2018-11-23T17:33:03.903Z,100960.42
2018-11-23T17:35:32.437Z,100947.95
2018-11-23T17:38:01.035Z,100954.20
2018-11-23T17:40:31.499Z,100954.94
2018-11-23T17:43:00.015Z,100959.83
2018-11-23T17:45:30.785Z,100956.45
2018-11-23T17:47:59.470Z,100952.45
2018-11-23T17:50:29.389Z,100948.45
2018-11-23T17:52:58.340Z,100950.34
2018-11-23T17:55:27.630Z,100950.13
2018-11-23T17:57:56.636Z,100953.66
2018-11-23T18:00:27.652Z,100951.69
2018-11-23T18:02:56.807Z,100952.45
2018-11-23T18:05:26.194Z,100950.91
2018-11-23T18:07:54.954Z,100948.25
2018-11-23T18:10:24.864Z,100945.20
2018-11-23T18:12:53.958Z,100931.97
2018-11-23T18:15:24.435Z,100934.80
2018-11-23T18:17:53.987Z,100945.23
2018-11-23T18:20:23.468Z,100927.65
2018-11-23T18:22:52.962Z,100925.03
2018-11-23T18:25:22.928Z,100928.85
2018-11-23T18:27:55.587Z,100927.32
2018-11-23T18:30:24.420Z,100926.27
2018-11-23T18:32:53.571Z,100914.87
2018-11-23T18:35:22.196Z,100920.03
2018-11-23T18:37:51.189Z,100914.84
2018-11-23T18:40:19.843Z,100915.42
2018-11-23T18:42:48.650Z,100912.01
2018-11-23T18:45:17.318Z,100915.97
2018-11-23T18:47:46.013Z,100915.28
2018-11-23T18:50:16.800Z,100908.45
2018-11-23T18:52:45.510Z,100911.97
2018-11-23T18:55:18.330Z,100916.66
2018-11-23T18:57:44.636Z,100917.63
2018-11-23T19:00:14.258Z,100919.70
2018-11-23T19:02:43.731Z,100908.63
2018-11-23T19:05:16.555Z,100901.95
2018-11-23T19:07:51.692Z,100903.14
2018-11-23T19:10:20.306Z,100905.33
2018-11-23T19:12:48.976Z,100895.77
2018-11-23T19:15:25.200Z,100894.89
2018-11-23T19:17:48.097Z,100892.45
2018-11-23T19:20:18.979Z,100888.86
2018-11-23T19:22:49.057Z,100881.50
2018-11-23T19:25:18.054Z,100882.35
2018-11-23T19:27:46.910Z,100873.66
2018-11-23T19:30:16.820Z,100879.80
2018-11-23T19:32:45.763Z,100874.58
2018-11-23T19:35:14.465Z,100877.33
2018-11-23T19:37:43.224Z,100876.23
2018-11-23T19:40:16.450Z,100880.70
2018-11-23T19:42:45.779Z,100856.78
2018-11-23T19:45:15.504Z,100858.70
2018-11-23T19:47:44.129Z,100857.66
2018-11-23T19:50:15.015Z,100856.82
2018-11-23T19:52:44.279Z,100855.74
2018-11-23T19:55:13.810Z,100856.41
2018-11-23T19:57:42.741Z,100858.13
2018-11-23T20:00:23.693Z,100848.85
2018-11-23T20:02:53.446Z,100846.30
2018-11-23T20:05:22.646Z,100841.96
2018-11-23T20:07:53.958Z,100848.62
2018-11-23T20:10:24.247Z,100850.53
2018-11-23T20:12:54.490Z,100848.85
2018-11-23T20:15:23.400Z,100850.30
2018-11-23T20:17:52.140Z,100849.97
2018-11-23T20:20:21.037Z,100849.80
2018-11-23T20:22:50.671Z,100848.74
2018-11-23T20:25:20.526Z,100848.47
2018-11-23T20:27:50.763Z,100845.73
2018-11-23T20:30:20.034Z,100839.33
2018-11-23T20:32:49.045Z,100843.37
2018-11-23T20:35:20.178Z,100842.54
2018-11-23T20:37:48.911Z,100832.55
2018-11-23T20:40:19.555Z,100840.37
2018-11-23T20:42:48.169Z,100836.17
2018-11-23T20:45:16.775Z,100830.86
2018-11-23T20:47:45.339Z,100837.58
2018-11-23T20:50:14.978Z,100833.61
2018-11-23T20:52:43.560Z,100830.13
2018-11-23T20:55:15.260Z,100825.78
2018-11-23T20:57:44.014Z,100820.14
2018-11-23T21:00:15.448Z,100816.47
2018-11-23T21:02:44.530Z,100815.23
2018-11-23T21:05:14.143Z,100805.88
2018-11-23T21:07:42.751Z,100804.52
2018-11-23T21:10:20.057Z,100815.47
2018-11-23T21:12:41.998Z,100804.05
2018-11-23T21:15:18.058Z,100806.16
2018-11-23T21:17:46.599Z,100809.66
2018-11-23T21:20:15.162Z,100804.62
2018-11-23T21:22:43.661Z,100809.26
2018-11-23T21:25:12.242Z,100805.48
2018-11-23T21:27:40.865Z,100807.45
2018-11-23T21:30:12.947Z,100806.05
2018-11-23T21:32:41.475Z,100805.32
2018-11-23T21:35:10.758Z,100807.59
2018-11-23T21:37:39.336Z,100812.93
2018-11-23T21:40:14.178Z,100803.75
2018-11-23T21:42:42.806Z,100797.84
2018-11-23T21:45:17.199Z,100800.84
2018-11-23T21:47:45.811Z,100791.73
2018-11-23T21:50:16.365Z,100794.33
2018-11-23T21:52:44.985Z,100784.34
2018-11-23T21:55:15.009Z,100784.38
2018-11-23T21:57:43.536Z,100785.38
2018-11-23T22:00:13.258Z,100786.65
2018-11-23T22:02:41.826Z,100784.88
2018-11-23T22:05:10.626Z,100786.38
2018-11-23T22:07:39.258Z,100783.58
2018-11-23T22:10:11.187Z,100783.78
2018-11-23T22:12:39.694Z,100782.10
2018-11-23T22:15:10.563Z,100780.30
2018-11-23T22:17:39.222Z,100777.92
2018-11-23T22:20:12.902Z,100782.67
2018-11-23T22:22:41.458Z,100787.17
2018-11-23T22:25:11.371Z,100787.74
2018-11-23T22:27:39.973Z,100779.56
2018-11-23T22:30:17.938Z,100778.39
2018-11-23T22:32:46.450Z,100786.64
2018-11-23T22:35:15.228Z,100772.95
2018-11-23T22:37:43.739Z,100776.78
2018-11-23T22:40:16.709Z,100767.84
2018-11-23T22:42:46.438Z,100770.83
2018-11-23T22:45:15.924Z,100763.98
2018-11-23T22:47:44.578Z,100757.60
2018-11-23T22:50:17.978Z,100764.36
2018-11-23T22:52:47.727Z,100759.37
2018-11-23T22:55:16.122Z,100754.72
2018-11-23T22:57:44.655Z,100757.33
2018-11-23T23:00:23.358Z,100756.50
2018-11-23T23:02:52.278Z,100752.45
2018-11-23T23:05:24.911Z,100751.69
2018-11-23T23:07:53.552Z,100752.25
2018-11-23T23:10:23.059Z,100744.30
2018-11-23T23:12:51.549Z,100745.73
2018-11-23T23:15:20.070Z,100737.52
2018-11-23T23:17:48.605Z,100737.52
2018-11-23T23:20:19.240Z,100739.28
2018-11-23T23:22:47.784Z,100732.66
2018-11-23T23:25:16.355Z,100728.25
2018-11-23T23:27:44.896Z,100727.45
2018-11-23T23:30:16.599Z,100720.71
2018-11-23T23:32:45.837Z,100727.97
2018-11-23T23:35:15.337Z,100731.05
2018-11-23T23:37:43.881Z,100734.77
2018-11-23T23:40:14.455Z,100730.86
2018-11-23T23:42:43.024Z,100732.25
2018-11-23T23:45:13.382Z,100731.09
2018-11-23T23:47:41.987Z,100728.66
2018-11-23T23:50:11.936Z,100729.65
2018-11-23T23:52:40.532Z,100717.50
2018-11-23T23:55:09.835Z,100715.72
2018-11-23T23:57:38.898Z,100711.31
